Time;durP1;ratioP1;P1;durP2;ratioP2;P2;SDS_P1;SDS_P2;PMS_P1;PMS_P2;Temp;Humidity;BMP_temperature;BMP_pressure;BME280_temperature;BME280_humidity;BME280_pressure;Samples;Min_cycle;Max_cycle;Signal;HPM_P1;HPM_P2
2021/04/30 00:01:48;;;;;;;2.90;2.70;;;;;;;9.01;70.74;98174.81;4739259;29;103928;-74
2021/04/30 00:04:15;;;;;;;4.40;4.10;;;;;;;9.00;70.58;98173.13;4739525;29;102620;-73
2021/04/30 00:06:42;;;;;;;4.10;3.80;;;;;;;9.01;70.27;98180.91;4739977;29;103196;-77
2021/04/30 00:09:09;;;;;;;4.00;3.63;;;;;;;8.96;70.96;98174.28;4739484;29;103867;-78
2021/04/30 00:11:36;;;;;;;3.40;3.10;;;;;;;9.01;70.30;98164.28;4736423;29;104154;-77
2021/04/30 00:14:04;;;;;;;3.67;3.37;;;;;;;9.05;70.36;98170.97;4740648;29;102941;-74
2021/04/30 00:16:31;;;;;;;4.43;4.13;;;;;;;9.06;70.03;98162.97;4740341;29;102752;-81
2021/04/30 00:18:58;;;;;;;6.83;5.23;;;;;;;8.85;71.42;98166.34;4738475;29;103885;-78
2021/04/30 00:21:25;;;;;;;4.73;4.20;;;;;;;8.82;71.67;98163.91;4739565;29;103282;-79
2021/04/30 00:23:56;;;;;;;7.03;5.13;;;;;;;8.85;71.08;98166.34;4740158;29;103154;-74
2021/04/30 00:26:23;;;;;;;4.93;4.53;;;;;;;8.85;70.91;98161.06;4742074;29;102668;-76
2021/04/30 00:28:51;;;;;;;4.47;4.13;;;;;;;8.81;71.38;98162.25;4737756;29;104819;-80
2021/04/30 00:31:20;;;;;;;4.00;3.70;;;;;;;8.84;70.66;98167.31;4739697;29;104249;-78
2021/04/30 00:33:48;;;;;;;5.40;4.90;;;;;;;8.88;70.12;98168.75;4739202;29;103172;-80
2021/04/30 00:36:15;;;;;;;5.40;4.80;;;;;;;8.84;70.18;98169.94;4742194;29;103379;-76
2021/04/30 00:38:42;;;;;;;5.73;5.10;;;;;;;8.85;70.11;98179.50;4736764;29;113515;-77
2021/04/30 00:41:09;;;;;;;5.57;5.07;;;;;;;8.87;69.71;98178.44;4722401;29;104336;-75
2021/04/30 00:43:36;;;;;;;4.53;4.17;;;;;;;8.89;69.64;98175.72;4725094;29;103458;-74
2021/04/30 00:46:03;;;;;;;5.60;5.10;;;;;;;8.91;69.69;98182.53;4755429;29;103206;-78
2021/04/30 00:48:31;;;;;;;6.27;5.77;;;;;;;8.87;69.59;98182.88;4736725;29;103959;-75
2021/04/30 00:50:58;;;;;;;5.20;4.80;;;;;;;8.84;70.11;98183.13;4736150;29;108309;-74
2021/04/30 00:53:25;;;;;;;4.57;4.17;;;;;;;8.83;70.30;98181.41;4743486;29;102637;-78
2021/04/30 00:55:52;;;;;;;5.90;5.40;;;;;;;8.83;70.01;98178.78;4741318;29;103561;-74
2021/04/30 00:58:23;;;;;;;5.77;5.27;;;;;;;8.80;69.76;98181.63;4739408;29;105797;-77
2021/04/30 01:00:50;;;;;;;5.57;5.07;;;;;;;8.77;70.72;98171.31;4750807;29;103729;-81
2021/04/30 01:03:17;;;;;;;5.63;5.13;;;;;;;8.77;69.89;98173.97;4739023;29;103147;-76
2021/04/30 01:05:44;;;;;;;6.07;5.57;;;;;;;8.71;70.98;98178.72;4752831;29;103075;-77
2021/04/30 01:08:11;;;;;;;6.03;5.53;;;;;;;8.68;69.86;98181.59;4755539;29;103907;-74
2021/04/30 01:10:39;;;;;;;6.50;6.00;;;;;;;8.60;70.45;98181.31;4734413;29;103791;-75
2021/04/30 01:13:06;;;;;;;5.43;4.70;;;;;;;8.59;70.41;98182.25;4752242;29;103099;-76
2021/04/30 01:15:33;;;;;;;5.97;5.47;;;;;;;8.46;70.69;98191.97;4742252;29;102832;-77
2021/04/30 01:18:00;;;;;;;5.43;5.03;;;;;;;8.56;69.79;98195.63;4721121;29;106035;-75
2021/04/30 01:20:27;;;;;;;7.13;6.53;;;;;;;8.46;70.63;98193.78;4738941;29;105179;-77
2021/04/30 01:22:55;;;;;;;6.00;5.50;;;;;;;8.41;71.06;98188.84;4743509;29;102914;-84
2021/04/30 01:25:25;;;;;;;6.47;5.87;;;;;;;8.44;70.18;98191.25;4748649;29;103077;-74
2021/04/30 01:27:53;;;;;;;5.63;5.13;;;;;;;8.50;70.40;98195.25;4735833;29;104205;-74
2021/04/30 01:30:25;;;;;;;5.70;5.20;;;;;;;8.57;69.89;98202.59;4738339;29;110867;-79
2021/04/30 01:32:53;;;;;;;7.47;6.67;;;;;;;8.43;70.13;98194.84;4738611;29;105441;-74
2021/04/30 01:35:22;;;;;;;6.57;5.97;;;;;;;8.45;70.00;98198.19;4739709;29;103064;-76
2021/04/30 01:37:51;;;;;;;7.13;6.53;;;;;;;8.42;69.74;98198.41;4739332;29;103490;-74
2021/04/30 01:40:22;;;;;;;6.13;5.63;;;;;;;8.41;70.00;98188.84;4734811;29;103227;-75
2021/04/30 01:43:01;;;;;;;6.60;6.00;;;;;;;8.41;70.53;98180.94;4727343;29;102919;-78
2021/04/30 01:45:30;;;;;;;5.90;5.40;;;;;;;8.39;71.18;98177.59;4739916;29;102790;-82
2021/04/30 01:47:57;;;;;;;6.13;5.57;;;;;;;8.40;70.46;98176.63;4739262;29;104163;-75
2021/04/30 01:50:25;;;;;;;6.13;5.53;;;;;;;8.44;70.78;98186.00;4739379;29;103950;-77
2021/04/30 01:52:52;;;;;;;5.77;5.27;;;;;;;8.50;70.84;98184.72;4744416;29;102583;-73
2021/04/30 01:55:20;;;;;;;6.30;5.80;;;;;;;8.37;71.42;98190.00;4753452;29;104066;-74
2021/04/30 01:57:47;;;;;;;6.17;5.67;;;;;;;8.48;70.95;98187.44;4738895;29;103880;-78
2021/04/30 02:00:20;;;;;;;5.93;5.43;;;;;;;8.58;70.31;98191.13;4737854;29;112613;-79
2021/04/30 02:02:49;;;;;;;4.70;4.30;;;;;;;8.64;70.34;98188.03;4734668;29;104898;-76
2021/04/30 02:05:17;;;;;;;6.33;5.73;;;;;;;8.66;70.40;98186.13;4739699;29;102884;-78
2021/04/30 02:07:44;;;;;;;6.17;5.67;;;;;;;8.66;69.98;98194.03;4756013;29;103460;-75
2021/04/30 02:10:15;;;;;;;7.23;6.63;;;;;;;8.50;71.10;98200.50;4736885;29;103797;-80
2021/04/30 02:12:44;;;;;;;6.87;6.17;;;;;;;8.38;71.30;98201.38;4720168;29;103393;-77
2021/04/30 02:15:12;;;;;;;7.20;6.50;;;;;;;8.53;70.69;98206.38;4720957;29;102913;-78
2021/04/30 02:17:40;;;;;;;6.23;5.73;;;;;;;8.50;71.37;98205.78;4717234;29;103870;-76
2021/04/30 02:20:08;;;;;;;6.33;5.80;;;;;;;8.33;71.74;98201.72;4719700;29;103944;-78
2021/04/30 02:22:35;;;;;;;6.33;5.73;;;;;;;8.46;70.49;98206.94;4725995;29;103337;-73
2021/04/30 02:25:03;;;;;;;6.93;6.23;;;;;;;8.51;70.51;98218.81;4725354;29;102862;-75
2021/04/30 02:27:30;;;;;;;7.33;6.73;;;;;;;8.62;69.88;98221.53;4724074;29;103946;-79
2021/04/30 02:29:58;;;;;;;6.67;6.07;;;;;;;8.68;70.23;98215.81;4705563;29;104916;-74
2021/04/30 02:32:26;;;;;;;6.97;6.37;;;;;;;8.69;69.64;98217.50;4721483;29;103080;-75
2021/04/30 02:34:53;;;;;;;7.50;6.80;;;;;;;8.62;71.18;98216.25;4710364;29;103409;-75
2021/04/30 02:37:20;;;;;;;6.00;5.50;;;;;;;8.64;71.39;98224.91;4723828;29;104016;-75
2021/04/30 02:39:47;;;;;;;7.03;6.40;;;;;;;8.67;70.95;98214.13;4723300;29;104315;-77
2021/04/30 02:42:14;;;;;;;7.83;7.03;;;;;;;8.34;73.35;98199.91;4723860;29;102562;-76
2021/04/30 02:44:41;;;;;;;9.00;8.20;;;;;;;8.09;74.07;98203.38;4723967;29;103321;-76
2021/04/30 02:47:09;;;;;;;9.20;8.20;;;;;;;7.91;74.40;98196.78;4723504;29;103743;-78
2021/04/30 02:49:41;;;;;;;9.13;8.33;;;;;;;7.90;73.85;98189.84;4720409;29;104402;-75
2021/04/30 02:52:09;;;;;;;11.00;9.13;;;;;;;7.72;74.87;98191.13;4724024;29;103123;-74
2021/04/30 02:54:37;;;;;;;8.90;8.20;;;;;;;7.70;74.89;98185.97;4724113;29;103318;-75
2021/04/30 02:57:05;;;;;;;8.57;7.77;;;;;;;7.72;75.51;98177.97;4723638;29;104931;-78
2021/04/30 02:59:32;;;;;;;6.53;5.93;;;;;;;7.76;74.91;98195.22;4723691;29;103857;-74
2021/04/30 03:01:59;;;;;;;8.93;8.10;;;;;;;7.86;74.06;98183.13;4722777;29;103181;-80
2021/04/30 03:04:28;;;;;;;10.53;8.83;;;;;;;7.34;76.21;98184.06;4723402;29;103222;-74
2021/04/30 03:06:55;;;;;;;8.70;7.90;;;;;;;7.40;75.83;98183.66;4719592;29;103472;-77
2021/04/30 03:09:24;;;;;;;7.33;6.63;;;;;;;7.39;75.93;98187.19;4722577;29;104317;-74
2021/04/30 03:11:51;;;;;;;7.70;7.07;;;;;;;7.72;74.14;98183.25;4722460;29;103445;-74
2021/04/30 03:14:18;;;;;;;7.43;6.73;;;;;;;7.78;74.49;98198.56;4728370;29;103353;-78
2021/04/30 03:16:45;;;;;;;7.63;6.93;;;;;;;7.96;73.94;98205.19;4725201;29;104068;-74
2021/04/30 03:19:12;;;;;;;6.57;6.00;;;;;;;8.02;73.57;98204.78;4724533;29;103345;-75
2021/04/30 03:21:40;;;;;;;7.03;6.43;;;;;;;8.03;74.54;98198.56;4722550;29;103037;-75
2021/04/30 03:24:08;;;;;;;7.73;7.03;;;;;;;8.01;74.47;98203.94;4729206;29;103209;-79
2021/04/30 03:26:36;;;;;;;9.53;8.57;;;;;;;8.08;73.41;98204.38;4718110;29;104127;-75
2021/04/30 03:29:03;;;;;;;7.93;7.23;;;;;;;8.12;72.80;98197.91;4722629;29;103302;-75
2021/04/30 03:31:31;;;;;;;8.97;8.17;;;;;;;7.81;75.48;98196.56;4721754;29;103799;-76
2021/04/30 03:33:58;;;;;;;9.87;8.97;;;;;;;7.75;75.34;98185.66;4722152;29;102759;-75
2021/04/30 03:36:25;;;;;;;10.10;8.63;;;;;;;7.49;75.57;98185.63;4704986;29;103445;-75
2021/04/30 03:38:53;;;;;;;11.10;9.90;;;;;;;7.33;75.91;98179.72;4705540;29;103809;-75
2021/04/30 03:41:20;;;;;;;9.93;9.03;;;;;;;7.57;75.01;98195.63;4725868;29;103239;-82
2021/04/30 03:43:47;;;;;;;9.10;8.30;;;;;;;7.72;74.72;98196.38;4723527;29;103118;-75
2021/04/30 03:46:14;;;;;;;10.53;9.53;;;;;;;7.66;74.78;98191.53;4721350;29;103978;-75
2021/04/30 03:48:42;;;;;;;10.30;8.87;;;;;;;7.59;75.32;98191.97;4723044;29;103166;-77
2021/04/30 03:51:09;;;;;;;7.93;7.23;;;;;;;7.85;74.00;98186.69;4718709;29;102583;-75
2021/04/30 03:53:36;;;;;;;10.27;9.37;;;;;;;7.83;74.77;98184.16;4723020;29;103123;-79
2021/04/30 03:56:04;;;;;;;10.17;9.17;;;;;;;7.78;74.23;98182.78;4723413;29;104826;-80
2021/04/30 03:58:31;;;;;;;8.97;8.23;;;;;;;7.77;73.66;98189.03;4725620;29;103701;-75
2021/04/30 04:00:58;;;;;;;12.70;9.93;;;;;;;7.54;74.12;98183.56;4717528;29;102824;-78
2021/04/30 04:03:25;;;;;;;11.47;10.37;;;;;;;7.31;75.81;98180.78;4704768;29;102973;-77
2021/04/30 04:05:52;;;;;;;11.03;9.93;;;;;;;7.45;75.72;98178.06;4704278;29;111119;-79
2021/04/30 04:08:19;;;;;;;11.53;10.43;;;;;;;7.29;75.55;98173.00;4704309;29;104172;-77
2021/04/30 04:10:46;;;;;;;10.60;9.63;;;;;;;7.39;75.04;98168.81;4716176;29;103129;-76
2021/04/30 04:13:18;;;;;;;8.20;7.27;;;;;;;7.53;74.80;98168.72;4723007;29;102915;-75
2021/04/30 04:15:47;;;;;;;9.60;8.80;;;;;;;7.75;73.55;98180.41;4722628;29;104069;-74
2021/04/30 04:18:15;;;;;;;8.63;7.83;;;;;;;7.83;73.17;98178.09;4704946;29;104276;-77
2021/04/30 04:20:43;;;;;;;7.33;6.53;;;;;;;7.91;73.11;98184.50;4703668;29;103198;-75
2021/04/30 04:23:11;;;;;;;8.97;8.17;;;;;;;8.05;72.76;98194.91;4714951;29;102948;-79
2021/04/30 04:25:39;;;;;;;9.37;8.53;;;;;;;8.07;73.57;98197.41;4719866;29;105369;-75
2021/04/30 04:28:07;;;;;;;8.57;7.77;;;;;;;8.08;72.85;98184.13;4715290;29;108426;-81
2021/04/30 04:30:35;;;;;;;11.10;9.97;;;;;;;7.99;74.17;98183.94;4719523;29;103450;-76
2021/04/30 04:33:03;;;;;;;8.77;7.97;;;;;;;7.87;73.32;98184.78;4715065;29;103106;-74
2021/04/30 04:35:31;;;;;;;8.60;7.80;;;;;;;7.93;73.43;98193.09;4704278;29;104235;-77
2021/04/30 04:37:58;;;;;;;10.63;9.63;;;;;;;7.90;74.53;98187.22;4730591;29;103231;-79
2021/04/30 04:40:25;;;;;;;10.43;9.43;;;;;;;7.82;74.06;98184.28;4719577;29;103068;-79
2021/04/30 04:42:53;;;;;;;12.80;10.50;;;;;;;7.59;74.98;98186.69;4718801;29;103325;-75
2021/04/30 04:45:20;;;;;;;8.90;8.00;;;;;;;7.81;74.98;98191.31;4719752;29;104101;-78
2021/04/30 04:47:49;;;;;;;7.60;6.90;;;;;;;8.09;73.53;98204.25;4719517;29;103245;-78
2021/04/30 04:50:16;;;;;;;11.17;10.17;;;;;;;8.15;74.98;98201.19;4709772;29;103202;-77
2021/04/30 04:52:44;;;;;;;9.60;8.70;;;;;;;7.99;75.03;98191.84;4720751;29;103041;-77
2021/04/30 04:55:12;;;;;;;11.13;10.03;;;;;;;7.95;74.93;98188.56;4703389;29;103445;-78
2021/04/30 04:57:40;;;;;;;9.47;8.57;;;;;;;8.18;73.96;98205.38;4719536;29;103991;-76
2021/04/30 05:00:08;;;;;;;9.80;8.73;;;;;;;8.34;73.60;98218.31;4719013;29;103142;-76
2021/04/30 05:02:35;;;;;;;13.23;10.40;;;;;;;7.84;76.47;98220.03;4720573;29;103535;-76
2021/04/30 05:05:04;;;;;;;12.83;11.47;;;;;;;7.71;76.14;98221.00;4715430;29;103955;-79
2021/04/30 05:07:31;;;;;;;10.70;9.57;;;;;;;7.79;75.31;98223.94;4734504;29;103222;-77
2021/04/30 05:09:58;;;;;;;9.77;8.77;;;;;;;8.12;74.83;98232.97;4729244;29;103168;-75
2021/04/30 05:12:25;;;;;;;10.47;9.47;;;;;;;8.24;72.21;98220.75;4720547;29;103946;-76
2021/04/30 05:14:52;;;;;;;10.70;9.60;;;;;;;8.26;71.38;98223.25;4720709;29;104482;-76
2021/04/30 05:17:20;;;;;;;10.37;9.37;;;;;;;8.19;72.15;98222.88;4720808;29;103899;-73
2021/04/30 05:19:47;;;;;;;10.80;9.87;;;;;;;7.69;73.62;98217.63;4717095;29;103188;-77
2021/04/30 05:22:18;;;;;;;10.47;9.57;;;;;;;7.76;74.62;98224.13;4721115;29;102642;-74
2021/04/30 05:24:46;;;;;;;11.93;10.73;;;;;;;7.73;76.05;98219.09;4716927;29;104413;-76
2021/04/30 05:27:13;;;;;;;11.73;10.63;;;;;;;7.74;74.97;98221.63;4719776;29;103946;-79
2021/04/30 05:29:41;;;;;;;10.20;9.20;;;;;;;7.94;73.96;98225.53;4719476;29;103165;-78
2021/04/30 05:32:08;;;;;;;10.93;9.90;;;;;;;7.69;73.25;98225.53;4719043;29;103350;-80
2021/04/30 05:34:38;;;;;;;11.07;9.97;;;;;;;7.82;74.21;98223.72;4719745;29;113041;-76
2021/04/30 05:37:05;;;;;;;11.03;10.03;;;;;;;7.84;75.18;98220.03;4718227;29;103858;-77
2021/04/30 05:39:34;;;;;;;9.53;8.53;;;;;;;7.88;75.67;98218.91;4720720;29;102631;-74
2021/04/30 05:42:01;;;;;;;11.60;10.53;;;;;;;7.90;75.44;98222.25;4720712;29;102735;-75
2021/04/30 05:44:29;;;;;;;13.33;10.73;;;;;;;7.90;74.43;98203.84;4719766;29;104045;-79
2021/04/30 05:46:57;;;;;;;11.27;10.17;;;;;;;7.99;72.42;98212.88;4721958;29;105185;-75
2021/04/30 05:49:24;;;;;;;11.40;10.23;;;;;;;7.86;70.99;98206.81;4713116;29;104860;-77
2021/04/30 05:51:51;;;;;;;10.87;9.87;;;;;;;7.55;71.69;98206.25;4713092;29;103456;-77
2021/04/30 05:54:18;;;;;;;11.43;10.33;;;;;;;7.69;72.36;98207.94;4718709;29;104590;-75
2021/04/30 05:56:46;;;;;;;10.87;9.77;;;;;;;7.53;71.96;98202.88;4717774;29;104113;-75
2021/04/30 05:59:13;;;;;;;11.73;10.63;;;;;;;7.78;71.24;98202.03;4722249;29;102906;-75
2021/04/30 06:01:40;;;;;;;10.33;9.20;;;;;;;8.23;71.56;98198.00;4722962;29;103107;-74
2021/04/30 06:04:07;;;;;;;11.30;10.20;;;;;;;8.17;72.39;98198.44;4722666;29;104541;-83
2021/04/30 06:06:34;;;;;;;11.13;10.03;;;;;;;8.16;71.29;98191.50;4732200;29;103832;-87
2021/04/30 06:09:01;;;;;;;9.80;8.77;;;;;;;8.27;69.59;98199.50;4722055;29;103408;-88
2021/04/30 06:11:28;;;;;;;10.33;9.13;;;;;;;8.11;69.62;98199.69;4732414;29;103043;-87
2021/04/30 06:13:56;;;;;;;10.87;9.87;;;;;;;8.12;71.55;98190.03;4741381;29;104066;-87
2021/04/30 06:16:26;;;;;;;10.13;9.13;;;;;;;7.66;71.39;98181.88;4737287;29;103570;-88
2021/04/30 06:18:53;;;;;;;9.63;8.73;;;;;;;7.96;71.45;98189.41;4742711;29;102930;-87
2021/04/30 06:21:20;;;;;;;9.77;8.87;;;;;;;8.10;70.17;98197.19;4737413;29;103068;-87
2021/04/30 06:23:47;;;;;;;9.63;8.73;;;;;;;8.05;70.17;98184.38;4741289;29;103943;-87
2021/04/30 06:26:15;;;;;;;10.80;9.73;;;;;;;7.95;69.74;98171.94;4741042;29;103905;-87
2021/04/30 06:28:42;;;;;;;9.60;8.70;;;;;;;8.36;69.58;98155.91;4740170;29;103316;-87
2021/04/30 06:31:10;;;;;;;10.20;9.13;;;;;;;8.56;68.81;98163.22;4740680;29;102872;-88
2021/04/30 06:33:37;;;;;;;10.43;9.20;;;;;;;8.37;69.26;98162.84;4737827;29;103940;-88
2021/04/30 06:36:05;;;;;;;10.43;9.23;;;;;;;8.00;70.52;98164.59;4739459;29;104633;-88
2021/04/30 06:38:32;;;;;;;10.73;9.53;;;;;;;7.97;70.08;98176.16;4728552;29;103272;-88
2021/04/30 06:41:04;;;;;;;9.73;8.83;;;;;;;8.11;70.02;98191.81;4737054;29;103253;-88
2021/04/30 06:43:31;;;;;;;10.53;9.43;;;;;;;8.20;69.73;98198.22;4740665;29;103354;-88
2021/04/30 06:45:58;;;;;;;10.13;9.13;;;;;;;7.72;70.35;98180.63;4733831;29;103998;-88
2021/04/30 06:48:26;;;;;;;11.27;10.20;;;;;;;7.55;70.98;98179.13;4738243;29;103159;-88
2021/04/30 06:50:54;;;;;;;9.73;8.73;;;;;;;7.72;70.14;98177.97;4722967;29;103526;-88
2021/04/30 06:53:21;;;;;;;9.90;9.03;;;;;;;7.91;70.38;98181.00;4739348;29;103964;-87
2021/04/30 06:55:48;;;;;;;10.47;9.47;;;;;;;7.73;70.51;98184.91;4729067;29;103833;-87
2021/04/30 06:58:15;;;;;;;10.70;9.60;;;;;;;7.77;70.36;98203.00;4740743;29;103063;-88
2021/04/30 07:00:42;;;;;;;9.97;8.87;;;;;;;8.20;70.01;98186.88;4738554;29;103408;-88
2021/04/30 07:03:10;;;;;;;9.90;8.90;;;;;;;8.26;69.79;98192.53;4735626;29;104627;-88
2021/04/30 07:05:58;;;;;;;9.43;8.63;;;;;;;8.20;70.08;98186.88;4738938;29;104168;-87
2021/04/30 07:08:25;;;;;;;9.43;8.53;;;;;;;8.54;69.91;98192.28;4735255;29;103094;-87
2021/04/30 07:10:52;;;;;;;10.80;9.80;;;;;;;8.66;68.87;98186.13;4730418;29;103378;-88
2021/04/30 07:13:19;;;;;;;9.63;8.83;;;;;;;8.53;69.61;98195.03;4723316;29;103425;-88
2021/04/30 07:15:47;;;;;;;9.67;8.47;;;;;;;8.18;69.44;98186.97;4716966;29;104340;-88
2021/04/30 07:18:14;;;;;;;10.83;9.73;;;;;;;7.89;70.19;98173.22;4721750;29;103716;-87
2021/04/30 07:20:41;;;;;;;10.33;9.27;;;;;;;8.02;70.31;98167.94;4709851;29;103088;-88
2021/04/30 07:23:09;;;;;;;11.17;9.07;;;;;;;8.16;70.11;98168.66;4724592;29;104453;-87
2021/04/30 07:25:37;;;;;;;10.20;9.23;;;;;;;8.34;70.57;98160.41;4723604;29;104377;-85
2021/04/30 07:28:04;;;;;;;9.77;8.87;;;;;;;8.16;69.54;98154.66;4732550;29;103162;-85
2021/04/30 07:30:31;;;;;;;11.07;9.40;;;;;;;7.85;71.03;98144.63;4726438;29;103424;-85
2021/04/30 07:33:00;;;;;;;11.17;9.77;;;;;;;8.01;71.52;98146.06;4726466;29;104359;-85
2021/04/30 07:35:38;;;;;;;10.27;9.27;;;;;;;8.31;71.50;98156.22;4728566;29;104330;-87
2021/04/30 07:38:06;;;;;;;11.13;9.43;;;;;;;8.46;70.78;98156.91;4722605;29;102914;-88
2021/04/30 07:40:35;;;;;;;10.67;9.17;;;;;;;8.31;71.11;98163.31;4721225;29;104469;-85
2021/04/30 07:43:03;;;;;;;10.13;9.23;;;;;;;8.18;70.45;98161.50;4723715;29;105200;-87
2021/04/30 07:45:31;;;;;;;9.27;8.47;;;;;;;8.04;70.63;98156.38;4721892;29;103436;-86
2021/04/30 07:47:58;;;;;;;9.03;8.13;;;;;;;8.36;70.87;98151.50;4720297;29;103051;-85
2021/04/30 07:50:25;;;;;;;8.60;7.80;;;;;;;8.65;70.36;98141.47;4712775;29;103074;-85
2021/04/30 07:52:52;;;;;;;9.70;8.70;;;;;;;8.59;70.60;98150.66;4720990;29;107105;-88
2021/04/30 07:55:20;;;;;;;9.60;8.80;;;;;;;8.41;69.46;98159.88;4714251;29;104217;-91
2021/04/30 07:57:48;;;;;;;10.20;9.17;;;;;;;8.29;69.57;98166.03;4720263;29;103377;-86
2021/04/30 08:00:16;;;;;;;10.83;9.83;;;;;;;8.12;70.34;98159.28;4721188;29;103307;-86
2021/04/30 08:02:43;;;;;;;10.27;9.30;;;;;;;8.40;70.93;98162.63;4721043;29;108690;-87
2021/04/30 08:05:11;;;;;;;10.50;9.23;;;;;;;8.58;69.32;98161.31;4712037;29;104270;-86
2021/04/30 08:07:40;;;;;;;10.30;9.33;;;;;;;8.28;69.68;98168.78;4720545;29;102578;-88
2021/04/30 08:10:09;;;;;;;10.70;9.40;;;;;;;8.10;69.60;98173.50;4722654;29;103009;-88
2021/04/30 08:12:36;;;;;;;9.33;8.43;;;;;;;8.31;69.17;98182.53;4739507;29;104154;-88
2021/04/30 08:15:07;;;;;;;9.53;8.67;;;;;;;8.37;69.46;98179.47;4737755;29;105012;-85
2021/04/30 08:17:34;;;;;;;9.60;8.70;;;;;;;8.58;68.78;98185.00;4738412;29;103275;-86
2021/04/30 08:20:03;;;;;;;9.77;7.90;;;;;;;8.57;68.88;98188.56;4733305;29;103129;-85
2021/04/30 08:22:31;;;;;;;10.30;8.67;;;;;;;8.40;69.66;98195.06;4741338;29;104614;-86
2021/04/30 08:24:59;;;;;;;9.73;8.63;;;;;;;8.34;68.46;98195.47;4740667;29;105867;-85
2021/04/30 08:27:27;;;;;;;12.83;8.60;;;;;;;8.42;68.51;98195.78;4723379;29;103355;-86
2021/04/30 08:29:55;;;;;;;10.53;9.53;;;;;;;8.21;69.24;98193.81;4738691;29;103250;-88
2021/04/30 08:32:23;;;;;;;10.30;9.20;;;;;;;8.21;69.72;98191.16;4737550;29;104495;-86
2021/04/30 08:34:54;;;;;;;10.37;9.37;;;;;;;8.48;69.12;98184.81;4739701;29;103893;-86
2021/04/30 08:37:21;;;;;;;9.83;8.83;;;;;;;8.48;70.12;98183.97;4727734;29;103325;-85
2021/04/30 08:39:49;;;;;;;10.17;9.17;;;;;;;8.52;70.26;98178.38;4719984;29;103112;-86
2021/04/30 08:42:18;;;;;;;9.80;8.87;;;;;;;8.54;70.15;98176.47;4728385;29;104756;-84
2021/04/30 08:44:45;;;;;;;10.73;9.63;;;;;;;8.64;69.37;98164.34;4741076;29;103311;-86
2021/04/30 08:47:16;;;;;;;11.80;10.30;;;;;;;8.63;71.09;98159.16;4755081;29;103323;-87
2021/04/30 08:49:44;;;;;;;12.33;9.17;;;;;;;8.73;71.06;98153.13;4734574;29;103125;-88
2021/04/30 08:52:12;;;;;;;12.50;10.33;;;;;;;8.81;70.72;98147.31;4723879;29;103778;-86
2021/04/30 08:54:41;;;;;;;10.70;9.67;;;;;;;8.93;71.19;98142.91;4754856;29;104062;-85
2021/04/30 08:57:12;;;;;;;12.87;10.60;;;;;;;8.77;69.56;98145.84;4728455;29;105568;-86
2021/04/30 08:59:39;;;;;;;11.53;10.23;;;;;;;8.78;70.81;98159.84;4728128;29;103148;-85
2021/04/30 09:02:07;;;;;;;12.90;10.53;;;;;;;8.73;70.74;98160.16;4730463;29;103936;-86
2021/04/30 09:04:36;;;;;;;12.57;10.90;;;;;;;8.81;70.63;98162.25;4738428;29;103867;-86
2021/04/30 09:07:15;;;;;;;12.10;10.93;;;;;;;8.83;70.87;98165.63;4751505;29;102926;-77
2021/04/30 09:09:59;;;;;;;13.63;10.87;;;;;;;8.65;70.30;98168.63;4735556;29;103017;-84
2021/04/30 09:12:28;;;;;;;11.63;10.43;;;;;;;8.44;72.14;98164.94;4736941;29;104886;-85
2021/04/30 09:14:56;;;;;;;12.00;10.83;;;;;;;8.40;72.59;98166.09;4737980;29;103716;-87
2021/04/30 09:17:27;;;;;;;12.87;11.57;;;;;;;8.70;71.63;98165.69;4738329;29;103050;-86
2021/04/30 09:19:59;;;;;;;12.43;10.53;;;;;;;8.82;71.72;98169.19;4737766;29;103357;-85
2021/04/30 09:22:34;;;;;;;12.43;11.23;;;;;;;8.91;72.00;98184.31;4724792;29;103289;-88
2021/04/30 09:25:06;;;;;;;12.93;11.57;;;;;;;8.95;72.34;98185.78;4725882;29;106291;-83
2021/04/30 09:27:36;;;;;;;13.67;12.37;;;;;;;8.45;72.34;98200.00;4737080;29;104528;-86
2021/04/30 09:30:24;;;;;;;13.50;12.10;;;;;;;8.30;74.03;98191.41;4721914;29;103097;-86
2021/04/30 09:33:10;;;;;;;10.70;9.50;;;;;;;8.64;73.50;98181.94;4735644;29;104917;-86
2021/04/30 09:35:40;;;;;;;12.73;11.47;;;;;;;8.27;73.51;98188.09;4738662;29;104851;-87
2021/04/30 09:38:22;;;;;;;15.10;12.67;;;;;;;8.34;74.07;98184.94;4736793;29;102712;-87
2021/04/30 09:40:50;;;;;;;14.40;13.00;;;;;;;8.38;74.13;98177.69;4726340;29;103432;-87
2021/04/30 09:43:19;;;;;;;13.77;12.47;;;;;;;8.53;73.90;98166.88;4739361;29;104200;-87
2021/04/30 09:45:48;;;;;;;13.40;12.00;;;;;;;8.43;74.30;98150.09;4747137;29;107792;-87
2021/04/30 09:48:15;;;;;;;16.07;14.27;;;;;;;8.49;74.12;98161.97;4749007;29;103122;-87
2021/04/30 09:50:45;;;;;;;14.80;13.40;;;;;;;8.51;73.80;98166.16;4696121;29;103344;-87
2021/04/30 09:53:17;;;;;;;15.47;13.07;;;;;;;8.50;73.97;98174.19;4735810;29;104355;-87
2021/04/30 09:55:48;;;;;;;13.50;12.10;;;;;;;8.58;75.21;98161.31;4736037;29;104594;-84
2021/04/30 09:58:20;;;;;;;13.90;12.37;;;;;;;8.40;74.50;98170.50;4735901;29;103564;-83
2021/04/30 10:00:48;;;;;;;12.80;11.53;;;;;;;8.16;74.97;98170.44;4736936;29;103163;-83
2021/04/30 10:03:19;;;;;;;14.37;12.83;;;;;;;8.22;74.58;98175.28;4738491;29;103890;-77
2021/04/30 10:06:02;;;;;;;12.90;11.70;;;;;;;8.43;74.44;98163.25;4742229;29;110410;-72
2021/04/30 10:08:30;;;;;;;13.47;12.17;;;;;;;8.39;74.62;98160.94;4728773;29;102995;-83
2021/04/30 10:10:59;;;;;;;15.77;12.70;;;;;;;8.29;75.15;98154.66;4735593;29;103173;-76
2021/04/30 10:13:37;;;;;;;15.00;13.50;;;;;;;8.35;74.89;98160.31;4731411;29;111038;-82
2021/04/30 10:16:05;;;;;;;15.43;13.93;;;;;;;8.25;75.56;98163.69;4737708;29;103980;-77
2021/04/30 10:18:32;;;;;;;18.10;14.10;;;;;;;8.19;76.00;98157.09;4737303;29;102998;-78
2021/04/30 10:21:00;;;;;;;15.30;13.70;;;;;;;8.44;75.61;98166.72;4737601;29;103286;-77
2021/04/30 10:23:30;;;;;;;16.23;14.57;;;;;;;8.48;74.86;98170.81;4746180;29;103872;-76
2021/04/30 10:26:02;;;;;;;17.50;14.23;;;;;;;8.43;75.75;98171.13;4748489;29;105722;-74
2021/04/30 10:28:32;;;;;;;16.27;14.67;;;;;;;8.29;75.91;98175.72;4738660;29;103131;-76
2021/04/30 10:31:05;;;;;;;16.20;14.60;;;;;;;8.54;75.80;98167.72;4738375;29;103037;-74
2021/04/30 10:33:38;;;;;;;16.53;14.87;;;;;;;8.37;75.29;98168.94;4736881;29;104020;-82
2021/04/30 10:36:13;;;;;;;16.97;15.27;;;;;;;8.21;77.69;98189.38;4734455;29;108596;-77
2021/04/30 10:38:43;;;;;;;17.80;16.10;;;;;;;8.42;77.52;98187.88;4736483;29;103490;-77
2021/04/30 10:41:13;;;;;;;17.30;15.53;;;;;;;8.55;77.67;98193.97;4735049;29;103090;-78
2021/04/30 10:43:41;;;;;;;18.67;16.03;;;;;;;8.08;79.63;98196.47;4717012;29;104502;-79
2021/04/30 10:46:21;;;;;;;19.93;17.33;;;;;;;7.94;81.32;98204.47;4736288;29;103571;-77
2021/04/30 10:49:15;;;;;;;27.10;24.37;;;;;;;7.99;82.40;98199.72;4741782;29;103637;-75
2021/04/30 10:51:44;;;;;;;19.73;17.93;;;;;;;8.25;83.10;98211.06;4736595;29;103308;-77
2021/04/30 10:54:27;;;;;;;19.20;17.30;;;;;;;7.97;82.99;98212.97;4710536;29;104813;-77
2021/04/30 10:56:59;;;;;;;19.00;17.10;;;;;;;8.01;83.44;98213.59;4733734;29;104464;-76
2021/04/30 10:59:27;;;;;;;19.47;17.47;;;;;;;7.99;83.10;98218.16;4732243;29;103291;-80
2021/04/30 11:02:03;;;;;;;19.20;17.30;;;;;;;7.88;84.53;98212.78;4734281;29;103208;-82
2021/04/30 11:04:30;;;;;;;19.47;17.33;;;;;;;7.62;83.76;98226.88;4727887;29;105799;-78
2021/04/30 11:06:58;;;;;;;20.83;18.73;;;;;;;7.47;86.02;98221.69;4749146;29;103954;-81
2021/04/30 11:09:33;;;;;;;20.10;18.00;;;;;;;7.57;85.48;98225.41;4739517;29;103282;-79
2021/04/30 11:12:19;;;;;;;19.97;17.97;;;;;;;7.60;87.07;98224.34;4716431;29;103741;-80
2021/04/30 11:14:57;;;;;;;19.37;17.27;;;;;;;7.78;85.59;98238.00;4747761;29;104094;-78
2021/04/30 11:17:48;;;;;;;18.27;16.17;;;;;;;7.78;86.95;98227.50;4714389;29;106282;-78
2021/04/30 11:20:19;;;;;;;19.47;17.40;;;;;;;7.69;87.59;98233.41;4730302;29;104092;-79
2021/04/30 11:23:17;;;;;;;17.27;15.47;;;;;;;7.68;85.27;98231.72;4747552;29;103357;-80
2021/04/30 11:26:06;;;;;;;17.73;15.43;;;;;;;7.74;86.82;98237.41;4721529;29;104387;-82
2021/04/30 11:29:09;;;;;;;16.13;14.43;;;;;;;7.61;86.30;98235.72;4738960;29;103642;-79
2021/04/30 11:31:38;;;;;;;16.00;14.50;;;;;;;7.53;86.38;98234.44;4733251;29;105278;-80
2021/04/30 11:34:22;;;;;;;15.43;13.73;;;;;;;7.46;85.99;98238.44;4735185;29;103197;-88
2021/04/30 11:36:55;;;;;;;16.67;14.97;;;;;;;7.03;88.79;98233.47;4740379;29;104029;-80